sensor_id;sensor_type;location;lat;lon;timestamp;pressure;altitude;pressure_sealevel;temperature;humidity
8890;BME280;4481;43.406;24.454;2023-06-24T00:00:01;75657.38;;;-144.09;100.00
8890;BME280;4481;43.406;24.454;2023-06-24T00:02:32;75653.19;;;-144.09;100.00
8890;BME280;4481;43.406;24.454;2023-06-24T00:04:59;75676.16;;;-144.09;100.00
8890;BME280;4481;43.406;24.454;2023-06-24T00:07:26;75678.25;;;-144.09;100.00
8890;BME280;4481;43.406;24.454;2023-06-24T00:09:52;75682.44;;;-144.09;100.00
8890;BME280;4481;43.406;24.454;2023-06-24T00:12:19;75684.53;;;-144.09;100.00
8890;BME280;4481;43.406;24.454;2023-06-24T00:14:46;75686.59;;;-144.09;100.00
8890;BME280;4481;43.406;24.454;2023-06-24T00:17:13;75680.34;;;-144.09;100.00
8890;BME280;4481;43.406;24.454;2023-06-24T00:19:39;75674.06;;;-144.09;100.00
8890;BME280;4481;43.406;24.454;2023-06-24T00:22:05;75694.97;;;-144.09;100.00
8890;BME280;4481;43.406;24.454;2023-06-24T00:24:31;75703.31;;;-144.09;100.00
8890;BME280;4481;43.406;24.454;2023-06-24T00:26:57;75694.97;;;-144.09;100.00
8890;BME280;4481;43.406;24.454;2023-06-24T00:29:24;75694.97;;;-144.09;100.00
8890;BME280;4481;43.406;24.454;2023-06-24T00:31:50;75684.53;;;-144.09;100.00
8890;BME280;4481;43.406;24.454;2023-06-24T00:34:17;75680.34;;;-144.09;100.00
8890;BME280;4481;43.406;24.454;2023-06-24T00:36:45;75707.50;;;-144.09;100.00
8890;BME280;4481;43.406;24.454;2023-06-24T00:39:12;75688.69;;;-144.09;100.00
8890;BME280;4481;43.406;24.454;2023-06-24T00:41:38;75690.78;;;-144.09;100.00
8890;BME280;4481;43.406;24.454;2023-06-24T00:44:04;75684.53;;;-144.09;100.00
8890;BME280;4481;43.406;24.454;2023-06-24T00:46:32;75703.31;;;-144.09;100.00
8890;BME280;4481;43.406;24.454;2023-06-24T00:48:59;75690.78;;;-144.09;100.00
8890;BME280;4481;43.406;24.454;2023-06-24T00:51:26;75688.69;;;-144.09;100.00
8890;BME280;4481;43.406;24.454;2023-06-24T00:53:56;75707.50;;;-144.09;100.00
8890;BME280;4481;43.406;24.454;2023-06-24T00:56:27;75713.78;;;-144.09;100.00
8890;BME280;4481;43.406;24.454;2023-06-24T00:58:54;75722.13;;;-144.09;100.00
8890;BME280;4481;43.406;24.454;2023-06-24T01:01:20;75711.69;;;-144.09;100.00
8890;BME280;4481;43.406;24.454;2023-06-24T01:03:46;75699.16;;;-144.09;100.00
8890;BME280;4481;43.406;24.454;2023-06-24T01:06:13;75713.78;;;-144.09;100.00
8890;BME280;4481;43.406;24.454;2023-06-24T01:08:41;75720.03;;;-144.09;100.00
8890;BME280;4481;43.406;24.454;2023-06-24T01:11:07;75713.78;;;-144.09;100.00
8890;BME280;4481;43.406;24.454;2023-06-24T01:13:33;75717.94;;;-144.09;100.00
8890;BME280;4481;43.406;24.454;2023-06-24T01:16:03;75688.69;;;-144.09;100.00
8890;BME280;4481;43.406;24.454;2023-06-24T01:18:39;75694.97;;;-144.09;100.00
8890;BME280;4481;43.406;24.454;2023-06-24T01:21:09;75703.31;;;-144.09;100.00
8890;BME280;4481;43.406;24.454;2023-06-24T01:23:59;75732.56;;;-144.09;100.00
8890;BME280;4481;43.406;24.454;2023-06-24T01:26:59;75734.66;;;-144.09;100.00
8890;BME280;4481;43.406;24.454;2023-06-24T01:29:42;75732.56;;;-144.09;100.00
8890;BME280;4481;43.406;24.454;2023-06-24T01:32:15;75720.03;;;-144.09;100.00
8890;BME280;4481;43.406;24.454;2023-06-24T01:34:50;75726.31;;;-144.09;100.00
8890;BME280;4481;43.406;24.454;2023-06-24T01:37:21;75734.66;;;-144.09;100.00
8890;BME280;4481;43.406;24.454;2023-06-24T01:39:52;75738.84;;;-144.09;100.00
8890;BME280;4481;43.406;24.454;2023-06-24T01:42:22;75753.47;;;-144.09;100.00
8890;BME280;4481;43.406;24.454;2023-06-24T01:44:49;75753.47;;;-144.09;100.00
8890;BME280;4481;43.406;24.454;2023-06-24T01:47:19;75738.84;;;-144.09;100.00
8890;BME280;4481;43.406;24.454;2023-06-24T01:49:48;75763.91;;;-144.09;100.00
8890;BME280;4481;43.406;24.454;2023-06-24T01:52:18;75753.47;;;-144.09;100.00
8890;BME280;4481;43.406;24.454;2023-06-24T01:54:47;75755.53;;;-144.09;100.00
8890;BME280;4481;43.406;24.454;2023-06-24T01:57:15;75753.47;;;-144.09;100.00
8890;BME280;4481;43.406;24.454;2023-06-24T01:59:45;75763.91;;;-144.09;100.00
8890;BME280;4481;43.406;24.454;2023-06-24T02:02:12;75763.91;;;-144.09;100.00
8890;BME280;4481;43.406;24.454;2023-06-24T02:04:39;75778.53;;;-144.09;100.00
8890;BME280;4481;43.406;24.454;2023-06-24T02:07:08;75788.97;;;-144.09;100.00
8890;BME280;4481;43.406;24.454;2023-06-24T02:09:35;75795.25;;;-144.09;100.00
8890;BME280;4481;43.406;24.454;2023-06-24T02:12:03;75795.25;;;-144.09;100.00
8890;BME280;4481;43.406;24.454;2023-06-24T02:14:31;75784.78;;;-144.09;100.00
8890;BME280;4481;43.406;24.454;2023-06-24T02:17:00;75786.88;;;-144.09;100.00
8890;BME280;4481;43.406;24.454;2023-06-24T02:19:29;75811.97;;;-144.09;100.00
8890;BME280;4481;43.406;24.454;2023-06-24T02:21:57;75809.88;;;-144.09;100.00
8890;BME280;4481;43.406;24.454;2023-06-24T02:24:25;75809.88;;;-144.09;100.00
8890;BME280;4481;43.406;24.454;2023-06-24T02:26:53;75805.69;;;-144.09;100.00
8890;BME280;4481;43.406;24.454;2023-06-24T02:29:19;75791.06;;;-144.09;100.00
8890;BME280;4481;43.406;24.454;2023-06-24T02:31:47;75786.88;;;-144.09;100.00
8890;BME280;4481;43.406;24.454;2023-06-24T02:34:14;75805.69;;;-144.09;100.00
8890;BME280;4481;43.406;24.454;2023-06-24T02:36:40;75826.56;;;-144.09;100.00
8890;BME280;4481;43.406;24.454;2023-06-24T02:39:07;75822.41;;;-144.09;100.00
8890;BME280;4481;43.406;24.454;2023-06-24T02:41:33;75824.50;;;-144.09;100.00
8890;BME280;4481;43.406;24.454;2023-06-24T02:43:59;75832.84;;;-144.09;100.00
8890;BME280;4481;43.406;24.454;2023-06-24T02:46:27;75826.56;;;-144.09;100.00
8890;BME280;4481;43.406;24.454;2023-06-24T02:48:56;75818.22;;;-144.09;100.00
8890;BME280;4481;43.406;24.454;2023-06-24T02:51:22;75843.28;;;-144.09;100.00
8890;BME280;4481;43.406;24.454;2023-06-24T02:53:50;75849.56;;;-144.09;100.00
8890;BME280;4481;43.406;24.454;2023-06-24T02:56:17;75845.38;;;-144.09;100.00
8890;BME280;4481;43.406;24.454;2023-06-24T02:58:46;75839.13;;;-144.09;100.00
8890;BME280;4481;43.406;24.454;2023-06-24T03:01:13;75845.38;;;-144.09;100.00
8890;BME280;4481;43.406;24.454;2023-06-24T03:03:41;75870.44;;;-144.09;100.00
8890;BME280;4481;43.406;24.454;2023-06-24T03:06:07;75872.53;;;-144.09;100.00
8890;BME280;4481;43.406;24.454;2023-06-24T03:08:38;75862.09;;;-144.09;100.00
8890;BME280;4481;43.406;24.454;2023-06-24T03:11:05;75853.72;;;-144.09;100.00
8890;BME280;4481;43.406;24.454;2023-06-24T03:13:31;75857.91;;;-144.09;100.00
8890;BME280;4481;43.406;24.454;2023-06-24T03:15:58;75851.66;;;-144.09;100.00
8890;BME280;4481;43.406;24.454;2023-06-24T03:18:24;75870.44;;;-144.09;100.00
8890;BME280;4481;43.406;24.454;2023-06-24T03:20:50;75851.66;;;-144.09;100.00
8890;BME280;4481;43.406;24.454;2023-06-24T03:23:17;75832.84;;;-144.09;100.00
8890;BME280;4481;43.406;24.454;2023-06-24T03:25:43;75830.75;;;-144.09;100.00
8890;BME280;4481;43.406;24.454;2023-06-24T03:28:09;75834.94;;;-144.09;100.00
8890;BME280;4481;43.406;24.454;2023-06-24T03:30:36;75830.75;;;-144.09;100.00
8890;BME280;4481;43.406;24.454;2023-06-24T03:33:02;75849.56;;;-144.09;100.00
8890;BME280;4481;43.406;24.454;2023-06-24T03:35:29;75860.00;;;-144.09;100.00
8890;BME280;4481;43.406;24.454;2023-06-24T03:37:57;75851.66;;;-144.09;100.00
8890;BME280;4481;43.406;24.454;2023-06-24T03:40:24;75839.13;;;-144.09;100.00
8890;BME280;4481;43.406;24.454;2023-06-24T03:42:50;75845.38;;;-144.09;100.00
8890;BME280;4481;43.406;24.454;2023-06-24T03:45:16;75855.81;;;-144.09;100.00
8890;BME280;4481;43.406;24.454;2023-06-24T03:47:43;75876.72;;;-144.09;100.00
8890;BME280;4481;43.406;24.454;2023-06-24T03:50:09;75876.72;;;-144.09;100.00
8890;BME280;4481;43.406;24.454;2023-06-24T03:52:36;75868.34;;;-144.09;100.00
8890;BME280;4481;43.406;24.454;2023-06-24T03:55:02;75876.72;;;-144.09;100.00
8890;BME280;4481;43.406;24.454;2023-06-24T03:57:29;75872.53;;;-144.09;100.00
8890;BME280;4481;43.406;24.454;2023-06-24T03:59:55;75870.44;;;-144.09;100.00
8890;BME280;4481;43.406;24.454;2023-06-24T04:02:22;75853.72;;;-144.09;100.00
8890;BME280;4481;43.406;24.454;2023-06-24T04:04:48;75824.50;;;-144.09;100.00
8890;BME280;4481;43.406;24.454;2023-06-24T04:07:16;75801.50;;;-144.09;100.00
8890;BME280;4481;43.406;24.454;2023-06-24T04:09:53;75766.00;;;-144.09;100.00
8890;BME280;4481;43.406;24.454;2023-06-24T04:12:20;75726.31;;;-144.09;100.00
8890;BME280;4481;43.406;24.454;2023-06-24T04:14:46;75694.97;;;-144.09;100.00
8890;BME280;4481;43.406;24.454;2023-06-24T04:17:12;75651.09;;;-144.09;100.00
8890;BME280;4481;43.406;24.454;2023-06-24T04:19:38;75609.31;;;-144.09;100.00
8890;BME280;4481;43.406;24.454;2023-06-24T04:22:06;75555.00;;;-144.09;100.00
8890;BME280;4481;43.406;24.454;2023-06-24T04:24:32;75488.16;;;-144.09;100.00
8890;BME280;4481;43.406;24.454;2023-06-24T04:26:58;75402.50;;;-144.09;100.00
8890;BME280;4481;43.406;24.454;2023-06-24T04:29:24;75312.69;;;-144.09;100.00
8890;BME280;4481;43.406;24.454;2023-06-24T04:31:50;75245.84;;;-144.09;99.38
8890;BME280;4481;43.406;24.454;2023-06-24T04:34:16;75164.41;;;-144.09;97.16
8890;BME280;4481;43.406;24.454;2023-06-24T04:36:42;75089.19;;;-144.09;95.24
8890;BME280;4481;43.406;24.454;2023-06-24T04:39:09;75070.41;;;-144.09;93.94
8890;BME280;4481;43.406;24.454;2023-06-24T04:41:35;75078.75;;;-144.09;93.84
8890;BME280;4481;43.406;24.454;2023-06-24T04:44:02;75076.66;;;-144.09;93.52
8890;BME280;4481;43.406;24.454;2023-06-24T04:46:29;75068.31;;;-144.09;93.81
8890;BME280;4481;43.406;24.454;2023-06-24T04:48:55;75059.97;;;-144.09;93.70
8890;BME280;4481;43.406;24.454;2023-06-24T04:51:21;75043.25;;;-144.09;93.26
8890;BME280;4481;43.406;24.454;2023-06-24T04:53:47;75016.09;;;-144.09;92.68
8890;BME280;4481;43.406;24.454;2023-06-24T04:56:14;74999.38;;;-144.09;92.35
8890;BME280;4481;43.406;24.454;2023-06-24T04:58:40;74991.03;;;-144.09;91.42
8890;BME280;4481;43.406;24.454;2023-06-24T05:01:07;74963.88;;;-144.09;91.05
8890;BME280;4481;43.406;24.454;2023-06-24T05:03:33;74951.34;;;-144.09;90.40
8890;BME280;4481;43.406;24.454;2023-06-24T05:05:59;74920.03;;;-144.09;89.81
8890;BME280;4481;43.406;24.454;2023-06-24T05:08:25;74897.06;;;-144.09;89.20
8890;BME280;4481;43.406;24.454;2023-06-24T05:10:51;74886.59;;;-144.09;89.20
8890;BME280;4481;43.406;24.454;2023-06-24T05:13:18;74894.97;;;-144.09;89.23
8890;BME280;4481;43.406;24.454;2023-06-24T05:15:44;74884.50;;;-144.09;88.77
8890;BME280;4481;43.406;24.454;2023-06-24T05:18:11;74834.38;;;-144.09;87.82
8890;BME280;4481;43.406;24.454;2023-06-24T05:20:37;74828.13;;;-144.09;88.18
8890;BME280;4481;43.406;24.454;2023-06-24T05:23:03;74794.72;;;-144.09;87.68
8890;BME280;4481;43.406;24.454;2023-06-24T05:25:29;74771.75;;;-144.09;87.45
8890;BME280;4481;43.406;24.454;2023-06-24T05:27:55;74742.50;;;-144.09;86.38
8890;BME280;4481;43.406;24.454;2023-06-24T05:30:22;74717.44;;;-144.09;86.65
8890;BME280;4481;43.406;24.454;2023-06-24T05:32:48;74709.09;;;-144.09;86.11
8890;BME280;4481;43.406;24.454;2023-06-24T05:35:14;74698.63;;;-144.09;86.48
8890;BME280;4481;43.406;24.454;2023-06-24T05:37:41;74690.28;;;-144.09;86.43
8890;BME280;4481;43.406;24.454;2023-06-24T05:40:07;74692.38;;;-144.09;86.05
8890;BME280;4481;43.406;24.454;2023-06-24T05:42:34;74642.25;;;-144.09;85.43
8890;BME280;4481;43.406;24.454;2023-06-24T05:45:01;74617.19;;;-144.09;84.03
8890;BME280;4481;43.406;24.454;2023-06-24T05:47:27;74600.50;;;-144.09;83.61
8890;BME280;4481;43.406;24.454;2023-06-24T05:49:54;74608.84;;;-144.09;83.37
8890;BME280;4481;43.406;24.454;2023-06-24T05:52:20;74585.88;;;-144.09;83.42
8890;BME280;4481;43.406;24.454;2023-06-24T05:54:46;74617.19;;;-144.09;84.15
8890;BME280;4481;43.406;24.454;2023-06-24T05:57:12;74596.31;;;-144.09;84.35
8890;BME280;4481;43.406;24.454;2023-06-24T05:59:38;74581.69;;;-144.09;84.04
8890;BME280;4481;43.406;24.454;2023-06-24T06:02:05;74567.06;;;-144.09;83.74
8890;BME280;4481;43.406;24.454;2023-06-24T06:04:32;74506.50;;;-144.09;82.73
8890;BME280;4481;43.406;24.454;2023-06-24T06:06:58;74506.50;;;-144.09;83.04
8890;BME280;4481;43.406;24.454;2023-06-24T06:09:24;74512.78;;;-144.09;82.30
8890;BME280;4481;43.406;24.454;2023-06-24T06:11:50;74502.34;;;-144.09;83.43
8890;BME280;4481;43.406;24.454;2023-06-24T06:14:17;74489.81;;;-144.09;83.08
8890;BME280;4481;43.406;24.454;2023-06-24T06:16:43;74489.81;;;-144.09;82.53
8890;BME280;4481;43.406;24.454;2023-06-24T06:19:09;74468.91;;;-144.09;81.84
8890;BME280;4481;43.406;24.454;2023-06-24T06:21:36;74485.63;;;-144.09;82.38
8890;BME280;4481;43.406;24.454;2023-06-24T06:24:03;74485.63;;;-144.09;80.86
8890;BME280;4481;43.406;24.454;2023-06-24T06:26:29;74512.78;;;-144.09;82.43
8890;BME280;4481;43.406;24.454;2023-06-24T06:28:56;74516.94;;;-144.09;81.34
8890;BME280;4481;43.406;24.454;2023-06-24T06:31:22;74519.03;;;-144.09;81.71
8890;BME280;4481;43.406;24.454;2023-06-24T06:33:51;74479.38;;;-144.09;79.83
8890;BME280;4481;43.406;24.454;2023-06-24T06:36:17;74437.59;;;-144.09;79.29
8890;BME280;4481;43.406;24.454;2023-06-24T06:38:44;74387.47;;;-144.09;71.45
8890;BME280;4481;43.406;24.454;2023-06-24T06:41:10;74362.41;;;-144.09;65.95
8890;BME280;4481;43.406;24.454;2023-06-24T06:43:37;74372.88;;;-144.09;66.67
8890;BME280;4481;43.406;24.454;2023-06-24T06:46:03;74385.38;;;-144.09;66.10
8890;BME280;4481;43.406;24.454;2023-06-24T06:48:30;74381.22;;;-144.09;66.32
8890;BME280;4481;43.406;24.454;2023-06-24T06:50:56;74416.72;;;-144.09;67.61
8890;BME280;4481;43.406;24.454;2023-06-24T06:53:22;74381.22;;;-144.09;66.52
8890;BME280;4481;43.406;24.454;2023-06-24T06:55:49;74345.72;;;-144.09;66.73
8890;BME280;4481;43.406;24.454;2023-06-24T06:58:15;74320.66;;;-144.09;65.65
8890;BME280;4481;43.406;24.454;2023-06-24T07:00:41;74412.53;;;-144.09;67.24
8890;BME280;4481;43.406;24.454;2023-06-24T07:03:07;74404.19;;;-144.09;67.15
8890;BME280;4481;43.406;24.454;2023-06-24T07:05:33;74431.34;;;-144.09;68.39
8890;BME280;4481;43.406;24.454;2023-06-24T07:07:59;74385.38;;;-144.09;67.72
8890;BME280;4481;43.406;24.454;2023-06-24T07:10:26;74354.06;;;-144.09;67.66
8890;BME280;4481;43.406;24.454;2023-06-24T07:12:52;74422.97;;;-144.09;66.81
8890;BME280;4481;43.406;24.454;2023-06-24T07:15:24;74387.47;;;-144.09;65.35
8890;BME280;4481;43.406;24.454;2023-06-24T07:17:50;74418.81;;;-144.09;66.24
8890;BME280;4481;43.406;24.454;2023-06-24T07:20:16;74360.34;;;-144.09;66.48
8890;BME280;4481;43.406;24.454;2023-06-24T07:22:42;74329.00;;;-144.09;65.84
8890;BME280;4481;43.406;24.454;2023-06-24T07:25:09;74324.84;;;-144.09;65.48
8890;BME280;4481;43.406;24.454;2023-06-24T07:27:35;74387.47;;;-144.09;66.39
8890;BME280;4481;43.406;24.454;2023-06-24T07:30:03;74422.97;;;-144.09;67.54
8890;BME280;4481;43.406;24.454;2023-06-24T07:32:30;74402.09;;;-144.09;66.83
8890;BME280;4481;43.406;24.454;2023-06-24T07:34:56;74437.59;;;-144.09;66.88
8890;BME280;4481;43.406;24.454;2023-06-24T07:37:22;74393.75;;;-144.09;67.39
8890;BME280;4481;43.406;24.454;2023-06-24T07:39:49;74349.91;;;-144.09;66.13
8890;BME280;4481;43.406;24.454;2023-06-24T07:42:15;74314.38;;;-144.09;65.45
8890;BME280;4481;43.406;24.454;2023-06-24T07:44:44;74316.47;;;-144.09;64.81
8890;BME280;4481;43.406;24.454;2023-06-24T07:47:11;74243.41;;;-144.09;64.50
8890;BME280;4481;43.406;24.454;2023-06-24T07:49:37;74182.84;;;-144.09;63.84
8890;BME280;4481;43.406;24.454;2023-06-24T07:52:03;74172.41;;;-144.09;63.08
8890;BME280;4481;43.406;24.454;2023-06-24T07:54:30;74164.03;;;-144.09;62.75
8890;BME280;4481;43.406;24.454;2023-06-24T07:56:56;74149.44;;;-144.09;62.63
8890;BME280;4481;43.406;24.454;2023-06-24T07:59:22;74126.47;;;-144.09;61.55
8890;BME280;4481;43.406;24.454;2023-06-24T08:01:49;74151.53;;;-144.09;61.99
8890;BME280;4481;43.406;24.454;2023-06-24T08:04:16;74141.06;;;-144.09;62.70
8890;BME280;4481;43.406;24.454;2023-06-24T08:06:42;74182.84;;;-144.09;61.18
8890;BME280;4481;43.406;24.454;2023-06-24T08:09:09;74220.44;;;-144.09;61.82
8890;BME280;4481;43.406;24.454;2023-06-24T08:11:35;74262.19;;;-144.09;62.15
8890;BME280;4481;43.406;24.454;2023-06-24T08:14:01;74212.06;;;-144.09;59.66
8890;BME280;4481;43.406;24.454;2023-06-24T08:16:27;74191.19;;;-144.09;61.32
8890;BME280;4481;43.406;24.454;2023-06-24T08:18:53;74199.53;;;-144.09;60.03
8890;BME280;4481;43.406;24.454;2023-06-24T08:21:20;74230.88;;;-144.09;60.34
8890;BME280;4481;43.406;24.454;2023-06-24T08:23:46;74182.84;;;-144.09;59.74
8890;BME280;4481;43.406;24.454;2023-06-24T08:26:13;74166.13;;;-144.09;59.99
8890;BME280;4481;43.406;24.454;2023-06-24T08:28:40;74155.69;;;-144.09;59.08
8890;BME280;4481;43.406;24.454;2023-06-24T08:31:06;74161.97;;;-144.09;56.29
8890;BME280;4481;43.406;24.454;2023-06-24T08:33:32;74149.44;;;-144.09;56.85
8890;BME280;4481;43.406;24.454;2023-06-24T08:35:59;74222.50;;;-144.09;59.20
8890;BME280;4481;43.406;24.454;2023-06-24T08:38:26;74308.13;;;-144.09;60.75
8890;BME280;4481;43.406;24.454;2023-06-24T08:40:52;74268.44;;;-144.09;61.08
8890;BME280;4481;43.406;24.454;2023-06-24T08:43:18;74237.13;;;-144.09;62.01
8890;BME280;4481;43.406;24.454;2023-06-24T08:45:45;74203.72;;;-144.09;61.21
8890;BME280;4481;43.406;24.454;2023-06-24T08:48:12;74191.19;;;-144.09;58.95
8890;BME280;4481;43.406;24.454;2023-06-24T08:50:43;74222.50;;;-144.09;60.37
8890;BME280;4481;43.406;24.454;2023-06-24T08:53:10;74226.69;;;-144.09;61.67
8890;BME280;4481;43.406;24.454;2023-06-24T08:55:40;74222.50;;;-144.09;60.28
8890;BME280;4481;43.406;24.454;2023-06-24T08:58:07;74203.72;;;-144.09;60.12
8890;BME280;4481;43.406;24.454;2023-06-24T09:00:33;74180.75;;;-144.09;61.09
8890;BME280;4481;43.406;24.454;2023-06-24T09:03:00;74147.34;;;-144.09;60.03
8890;BME280;4481;43.406;24.454;2023-06-24T09:05:26;74178.66;;;-144.09;57.34
8890;BME280;4481;43.406;24.454;2023-06-24T09:07:53;74260.09;;;-144.09;56.51
8890;BME280;4481;43.406;24.454;2023-06-24T09:10:29;74239.22;;;-144.09;54.16
8890;BME280;4481;43.406;24.454;2023-06-24T09:12:56;74268.44;;;-144.09;57.61
8890;BME280;4481;43.406;24.454;2023-06-24T09:15:23;74260.09;;;-144.09;54.84
8890;BME280;4481;43.406;24.454;2023-06-24T09:17:49;74301.88;;;-144.09;52.47
8890;BME280;4481;43.406;24.454;2023-06-24T09:20:15;74331.09;;;-144.09;52.38
8890;BME280;4481;43.406;24.454;2023-06-24T09:22:45;74331.09;;;-144.09;51.58
8890;BME280;4481;43.406;24.454;2023-06-24T09:25:16;74314.38;;;-144.09;51.42
8890;BME280;4481;43.406;24.454;2023-06-24T09:27:47;74303.94;;;-144.09;53.63
8890;BME280;4481;43.406;24.454;2023-06-24T09:30:18;74337.38;;;-144.09;54.74
8890;BME280;4481;43.406;24.454;2023-06-24T09:32:45;74356.16;;;-144.09;56.12
8890;BME280;4481;43.406;24.454;2023-06-24T09:35:11;74351.97;;;-144.09;55.44
8890;BME280;4481;43.406;24.454;2023-06-24T09:37:38;74381.22;;;-144.09;55.49
8890;BME280;4481;43.406;24.454;2023-06-24T09:40:05;74420.88;;;-144.09;55.35
8890;BME280;4481;43.406;24.454;2023-06-24T09:42:34;74410.44;;;-144.09;56.76
8890;BME280;4481;43.406;24.454;2023-06-24T09:45:04;74362.41;;;-144.09;56.91
8890;BME280;4481;43.406;24.454;2023-06-24T09:47:31;74379.13;;;-144.09;56.28
8890;BME280;4481;43.406;24.454;2023-06-24T09:49:57;74368.69;;;-144.09;57.68
8890;BME280;4481;43.406;24.454;2023-06-24T09:52:24;74349.91;;;-144.09;56.86
8890;BME280;4481;43.406;24.454;2023-06-24T09:54:53;74329.00;;;-144.09;54.56
8890;BME280;4481;43.406;24.454;2023-06-24T09:57:25;74314.38;;;-144.09;55.08
8890;BME280;4481;43.406;24.454;2023-06-24T09:59:52;74287.25;;;-144.09;54.79
8890;BME280;4481;43.406;24.454;2023-06-24T10:02:18;74291.41;;;-144.09;53.88
8890;BME280;4481;43.406;24.454;2023-06-24T10:04:46;74266.38;;;-144.09;55.77
8890;BME280;4481;43.406;24.454;2023-06-24T10:07:13;74270.53;;;-144.09;56.57
8890;BME280;4481;43.406;24.454;2023-06-24T10:09:40;74354.06;;;-144.09;54.02
8890;BME280;4481;43.406;24.454;2023-06-24T10:12:07;74329.00;;;-144.09;55.74
8890;BME280;4481;43.406;24.454;2023-06-24T10:14:34;74324.84;;;-144.09;54.26
8890;BME280;4481;43.406;24.454;2023-06-24T10:17:04;74316.47;;;-144.09;54.25
8890;BME280;4481;43.406;24.454;2023-06-24T10:19:30;74329.00;;;-144.09;53.35
8890;BME280;4481;43.406;24.454;2023-06-24T10:22:07;74312.31;;;-144.09;51.81
8890;BME280;4481;43.406;24.454;2023-06-24T10:24:36;74333.19;;;-144.09;51.56
8890;BME280;4481;43.406;24.454;2023-06-24T10:27:04;74356.16;;;-144.09;51.54
8890;BME280;4481;43.406;24.454;2023-06-24T10:29:32;74356.16;;;-144.09;52.61
8890;BME280;4481;43.406;24.454;2023-06-24T10:32:02;74374.94;;;-144.09;53.05
8890;BME280;4481;43.406;24.454;2023-06-24T10:34:31;74377.03;;;-144.09;49.02
8890;BME280;4481;43.406;24.454;2023-06-24T10:36:59;74356.16;;;-144.09;48.52
8890;BME280;4481;43.406;24.454;2023-06-24T10:39:40;74341.53;;;-144.09;52.74
8890;BME280;4481;43.406;24.454;2023-06-24T10:42:25;74303.94;;;-144.09;50.19
8890;BME280;4481;43.406;24.454;2023-06-24T10:44:52;74276.81;;;-144.09;52.15
8890;BME280;4481;43.406;24.454;2023-06-24T10:47:19;74283.06;;;-144.09;47.91
8890;BME280;4481;43.406;24.454;2023-06-24T10:49:45;74280.97;;;-144.09;45.56
8890;BME280;4481;43.406;24.454;2023-06-24T10:52:12;74268.44;;;-144.09;46.52
8890;BME280;4481;43.406;24.454;2023-06-24T10:54:40;74260.09;;;-144.09;47.47
8890;BME280;4481;43.406;24.454;2023-06-24T10:57:07;74264.28;;;-144.09;44.10
8890;BME280;4481;43.406;24.454;2023-06-24T10:59:34;74224.59;;;-144.09;45.09
8890;BME280;4481;43.406;24.454;2023-06-24T11:02:00;74189.09;;;-144.09;47.26
8890;BME280;4481;43.406;24.454;2023-06-24T11:04:27;74151.53;;;-144.09;43.58
8890;BME280;4481;43.406;24.454;2023-06-24T11:07:00;74145.25;;;-144.09;44.03
8890;BME280;4481;43.406;24.454;2023-06-24T11:09:26;74099.31;;;-144.09;46.23
8890;BME280;4481;43.406;24.454;2023-06-24T11:11:53;74074.25;;;-144.09;48.40
8890;BME280;4481;43.406;24.454;2023-06-24T11:14:20;74074.25;;;-144.09;44.67
8890;BME280;4481;43.406;24.454;2023-06-24T11:16:46;74147.34;;;-144.09;47.52
8890;BME280;4481;43.406;24.454;2023-06-24T11:19:13;74193.28;;;-144.09;47.20
8890;BME280;4481;43.406;24.454;2023-06-24T11:21:39;74141.06;;;-144.09;47.82
8890;BME280;4481;43.406;24.454;2023-06-24T11:24:06;74103.50;;;-144.09;49.63
8890;BME280;4481;43.406;24.454;2023-06-24T11:26:32;74116.03;;;-144.09;48.76
8890;BME280;4481;43.406;24.454;2023-06-24T11:28:59;74176.56;;;-144.09;48.35
8890;BME280;4481;43.406;24.454;2023-06-24T11:31:26;74178.66;;;-144.09;50.34
8890;BME280;4481;43.406;24.454;2023-06-24T11:33:52;74153.59;;;-144.09;52.46
8890;BME280;4481;43.406;24.454;2023-06-24T11:36:19;74147.34;;;-144.09;49.13
8890;BME280;4481;43.406;24.454;2023-06-24T11:38:45;74187.00;;;-144.09;50.13
8890;BME280;4481;43.406;24.454;2023-06-24T11:41:11;74176.56;;;-144.09;50.61
8890;BME280;4481;43.406;24.454;2023-06-24T11:43:43;74136.91;;;-144.09;50.27
8890;BME280;4481;43.406;24.454;2023-06-24T11:46:11;74130.63;;;-144.09;52.34
8890;BME280;4481;43.406;24.454;2023-06-24T11:48:46;74105.59;;;-144.09;48.23
8890;BME280;4481;43.406;24.454;2023-06-24T11:51:12;74095.13;;;-144.09;47.44
8890;BME280;4481;43.406;24.454;2023-06-24T11:53:41;74116.03;;;-144.09;45.99
8890;BME280;4481;43.406;24.454;2023-06-24T11:56:08;74090.97;;;-144.09;47.11
8890;BME280;4481;43.406;24.454;2023-06-24T11:58:34;74072.16;;;-144.09;47.37
8890;BME280;4481;43.406;24.454;2023-06-24T12:01:01;74059.66;;;-144.09;47.12
8890;BME280;4481;43.406;24.454;2023-06-24T12:03:29;74051.28;;;-144.09;46.64
8890;BME280;4481;43.406;24.454;2023-06-24T12:05:55;74076.34;;;-144.09;45.92
8890;BME280;4481;43.406;24.454;2023-06-24T12:08:21;74080.53;;;-144.09;46.58
8890;BME280;4481;43.406;24.454;2023-06-24T12:10:48;74174.50;;;-144.09;45.95
8890;BME280;4481;43.406;24.454;2023-06-24T12:13:14;74166.13;;;-144.09;46.23
8890;BME280;4481;43.406;24.454;2023-06-24T12:15:41;74161.97;;;-144.09;46.32
8890;BME280;4481;43.406;24.454;2023-06-24T12:18:07;74149.44;;;-144.09;45.53
8890;BME280;4481;43.406;24.454;2023-06-24T12:20:34;74164.03;;;-144.09;45.10
8890;BME280;4481;43.406;24.454;2023-06-24T12:23:01;74168.22;;;-144.09;44.29
8890;BME280;4481;43.406;24.454;2023-06-24T12:25:29;74174.50;;;-144.09;47.32
8890;BME280;4481;43.406;24.454;2023-06-24T12:27:55;74153.59;;;-144.09;47.44
8890;BME280;4481;43.406;24.454;2023-06-24T12:30:21;74132.72;;;-144.09;46.74
8890;BME280;4481;43.406;24.454;2023-06-24T12:32:49;74099.31;;;-144.09;46.28
8890;BME280;4481;43.406;24.454;2023-06-24T12:35:16;74082.63;;;-144.09;44.30
8890;BME280;4481;43.406;24.454;2023-06-24T12:37:43;74093.06;;;-144.09;41.27
8890;BME280;4481;43.406;24.454;2023-06-24T12:40:11;74107.66;;;-144.09;39.64
8890;BME280;4481;43.406;24.454;2023-06-24T12:42:37;74120.19;;;-144.09;40.06
8890;BME280;4481;43.406;24.454;2023-06-24T12:45:04;74139.00;;;-144.09;39.52